Berea, KY (40404)

9:34 PM EDT on April 20, 2015 (GMT -0400)
Bratcher Lane | | Change Station
CLOSE
Current Station
Personal Weather Station
Location: Berea, KY
Elevation: 1001 ft
Nearby Weather Stations

Elev 1001 ft 37.56 °N, 84.28 °W | Updated 52 seconds ago

Overcast
Overcast
51.1 °F
Feels Like 51.1 °F
N
5.0
Wind Variable Wind from SSW
Gusts 5.0 mph

Today
High -- | Low -- °F
--% Chance of Precip.
Yesterday
High -- | Low -- °F
Precip. -- in
6:55 AM 8:16 PM
Waxing Crescent, 7% visible
Pressure 29.76 in
Visibility 10.0 miles
Clouds Overcast 8000 ft
Dew Point 49 °F
Humidity 91%
Rainfall 0.30 in
Snow Depth Not available.
UV 0 out of 12
Pollen 8.80 out of 12
Air Quality Not available.
Flu Activity Local Activity
METAR KI39 210115Z AUTO 23007KT 10SM OVC080 11/09 A2976 RMK AO2

More Conditions Fewer Conditions

Pressure 29.76 in
Visibility 10.0 miles
Clouds Overcast 8000 ft
Dew Point 49 °F
Humidity 91%
Rainfall 0.30 in
Snow Depth Not available.
UV 0 out of 12
Pollen 8.80 out of 12
Air Quality Not available.
Flu Activity Local Activity
METAR KI39 210115Z AUTO 23007KT 10SM OVC080 11/09 A2976 RMK AO2

More Conditions Fewer Conditions

10-Day Weather Forecast

Almanac

Astronomy

Apr. 20, 2015 Rise Set
Actual Time
Civil Twilight
Nautical Twilight
Astronomical Twilight
Moon
Length of Visible Light
Length of Day
Tomorrow will be .
, % of the Moon is Illuminated

Today's Extremes

State Highs State Lows

Community

WunderPhotos

Upload Photos

1,815,276 photos uploaded!

WunderBlogs® & News

Nearby

Air Quality

  Air Quality AQ Index Pollutant
Not available.

Snow Depth

Station Depth Elevation

Earthquake Activity

City Distance Mag. Time & Date
Minimum magnitude displayed is 2.5.

Coastal Water Temperatures

Place Temperature

Stations

Nearby Weather Stations

Station Location Temp. Windchill Dew Point Humidity Wind Precip. Elev Updated Type